createdAt,value
2022-08-19T00:02:19.534Z,3.83
2022-08-19T00:05:23.149Z,4.18
2022-08-19T00:08:25.583Z,3.47
2022-08-19T00:11:28.950Z,3.65
2022-08-19T00:14:32.524Z,3.40
2022-08-19T00:17:35.186Z,3.63
2022-08-19T00:20:41.428Z,4.85
2022-08-19T00:23:44.208Z,3.90
2022-08-19T00:26:46.770Z,3.47
2022-08-19T00:29:52.639Z,3.13
2022-08-19T00:32:58.465Z,3.35
2022-08-19T00:36:02.269Z,3.30
2022-08-19T00:39:05.073Z,3.63
2022-08-19T00:42:07.537Z,3.40
2022-08-19T00:45:14.075Z,3.35
2022-08-19T00:48:17.501Z,3.13
2022-08-19T00:51:20.045Z,3.50
2022-08-19T00:54:28.262Z,3.43
2022-08-19T00:57:41.263Z,3.05
2022-08-19T01:00:43.757Z,3.65
2022-08-19T01:03:58.014Z,3.60
2022-08-19T01:07:02.735Z,3.15
2022-08-19T01:10:10.367Z,3.70
2022-08-19T01:13:16.109Z,3.05
2022-08-19T01:16:21.669Z,3.58
2022-08-19T01:19:43.746Z,3.63
2022-08-19T01:22:53.405Z,3.67
2022-08-19T01:25:56.834Z,3.27
2022-08-19T01:29:02.210Z,3.30
2022-08-19T01:32:32.418Z,3.80
2022-08-19T01:35:36.795Z,3.45
2022-08-19T01:38:44.186Z,3.95
2022-08-19T01:41:49.011Z,3.23
2022-08-19T01:44:51.387Z,3.40
2022-08-19T01:48:01.185Z,3.13
2022-08-19T01:51:04.287Z,3.50
2022-08-19T01:54:06.866Z,3.47
2022-08-19T01:57:13.590Z,3.13
2022-08-19T02:00:18.524Z,3.20
2022-08-19T02:03:20.864Z,3.40
2022-08-19T02:06:26.982Z,3.38
2022-08-19T02:09:29.536Z,3.65
2022-08-19T02:12:32.058Z,3.57
2022-08-19T02:15:34.456Z,3.20
2022-08-19T02:18:36.977Z,3.70
2022-08-19T02:21:39.324Z,3.45
2022-08-19T02:24:41.821Z,3.17
2022-08-19T02:27:44.196Z,3.47
2022-08-19T02:30:48.297Z,3.78
2022-08-19T02:33:51.509Z,3.42
2022-08-19T02:36:53.990Z,3.88
2022-08-19T02:39:56.606Z,4.03
2022-08-19T02:42:59.130Z,3.87
2022-08-19T02:46:01.988Z,3.42
2022-08-19T02:49:08.262Z,3.50
2022-08-19T02:52:12.140Z,3.53
2022-08-19T02:55:14.728Z,3.60
2022-08-19T02:58:17.671Z,3.60
2022-08-19T03:01:30.653Z,4.65
2022-08-19T03:04:33.041Z,4.18
2022-08-19T03:07:35.483Z,3.83
2022-08-19T03:10:48.138Z,3.78
2022-08-19T03:13:51.866Z,3.30
2022-08-19T03:16:54.272Z,3.83
2022-08-19T03:19:56.749Z,3.90
2022-08-19T03:22:59.086Z,3.72
2022-08-19T03:26:16.662Z,3.80
2022-08-19T03:29:30.852Z,4.03
2022-08-19T03:32:34.537Z,4.18
2022-08-19T03:35:39.884Z,4.28
2022-08-19T03:38:49.431Z,3.90
2022-08-19T03:42:32.707Z,3.95
2022-08-19T03:45:24.196Z,4.00
2022-08-19T03:48:26.669Z,4.13
2022-08-19T03:51:35.903Z,4.10
2022-08-19T03:54:39.490Z,4.10
2022-08-19T03:57:42.043Z,4.00
2022-08-19T04:00:44.551Z,4.80
2022-08-19T04:03:47.741Z,3.95
2022-08-19T04:06:51.731Z,4.10
2022-08-19T04:09:54.363Z,4.07
2022-08-19T04:12:56.752Z,4.05
2022-08-19T04:15:59.158Z,4.10
2022-08-19T04:19:04.353Z,4.20
2022-08-19T04:22:08.218Z,4.18
2022-08-19T04:25:11.199Z,4.18
2022-08-19T04:28:14.472Z,3.92
2022-08-19T04:31:27.071Z,4.33
2022-08-19T04:34:30.618Z,3.70
2022-08-19T04:37:35.314Z,3.78
2022-08-19T04:41:01.215Z,4.10
2022-08-19T04:44:04.561Z,3.92
2022-08-19T04:47:11.342Z,4.13
2022-08-19T04:50:14.064Z,4.13
2022-08-19T04:53:16.443Z,3.88
2022-08-19T04:56:23.586Z,4.07
2022-08-19T04:59:26.188Z,4.10
2022-08-19T05:02:28.651Z,3.90
2022-08-19T05:05:32.196Z,4.20
2022-08-19T05:08:48.425Z,3.92
2022-08-19T05:11:54.532Z,4.10
2022-08-19T05:14:58.601Z,4.18
2022-08-19T05:18:19.536Z,3.93
2022-08-19T05:21:42.040Z,4.30
2022-08-19T05:25:09.410Z,4.30
2022-08-19T05:28:06.792Z,4.28
2022-08-19T05:31:09.215Z,3.90
2022-08-19T05:34:20.087Z,4.20
2022-08-19T05:37:23.306Z,4.43
2022-08-19T05:40:25.650Z,4.05
2022-08-19T05:43:29.327Z,4.47
2022-08-19T05:46:31.663Z,4.30
2022-08-19T05:49:35.259Z,4.50
2022-08-19T05:52:43.689Z,4.38
2022-08-19T05:55:48.419Z,4.55
2022-08-19T05:58:51.071Z,4.32
2022-08-19T06:01:56.665Z,4.55
2022-08-19T06:04:59.278Z,3.97
2022-08-19T06:08:01.950Z,4.40
2022-08-19T06:11:19.128Z,4.20
2022-08-19T06:14:27.857Z,4.72
2022-08-19T06:17:37.476Z,4.45
2022-08-19T06:20:55.151Z,4.60
2022-08-19T06:24:07.279Z,4.85
2022-08-19T06:27:10.020Z,4.70
2022-08-19T06:30:13.413Z,4.82
2022-08-19T06:33:15.829Z,4.75
2022-08-19T06:36:35.089Z,4.83
2022-08-19T06:39:41.388Z,4.28
2022-08-19T06:42:50.225Z,4.28
2022-08-19T06:45:58.017Z,4.20
2022-08-19T06:49:01.743Z,4.50
2022-08-19T06:52:05.724Z,4.50
2022-08-19T06:55:08.439Z,4.57
2022-08-19T06:58:11.320Z,4.25
2022-08-19T07:01:13.792Z,4.32
2022-08-19T07:04:19.184Z,4.55
2022-08-19T07:07:22.093Z,4.97
2022-08-19T07:10:25.793Z,4.22
2022-08-19T07:13:28.226Z,4.82
2022-08-19T07:16:31.015Z,7.57
2022-08-19T07:19:34.942Z,5.38
2022-08-19T07:22:39.020Z,6.30
2022-08-19T07:25:41.443Z,4.90
2022-08-19T07:28:46.033Z,4.22
2022-08-19T07:31:57.410Z,4.68
2022-08-19T07:35:04.401Z,4.45
2022-08-19T07:38:06.800Z,4.10
2022-08-19T07:41:16.211Z,3.70
2022-08-19T07:44:21.123Z,4.45
2022-08-19T07:47:49.333Z,4.15
2022-08-19T07:50:46.427Z,4.07
2022-08-19T07:53:51.529Z,4.33
2022-08-19T07:56:54.305Z,4.22
2022-08-19T08:00:00.955Z,5.45
2022-08-19T08:03:03.356Z,4.32
2022-08-19T08:06:24.961Z,4.68
2022-08-19T08:09:34.831Z,4.47
2022-08-19T08:12:44.428Z,4.72
2022-08-19T08:16:10.194Z,5.47
2022-08-19T08:19:25.915Z,5.10
2022-08-19T08:22:48.259Z,5.55
2022-08-19T08:25:58.015Z,5.90
2022-08-19T08:29:00.518Z,5.43
2022-08-19T08:32:14.276Z,5.40
2022-08-19T08:35:21.089Z,5.15
2022-08-19T08:38:23.888Z,5.20
2022-08-19T08:41:59.139Z,4.30
2022-08-19T08:45:07.588Z,4.55
2022-08-19T08:48:54.462Z,4.60
2022-08-19T08:52:24.737Z,4.60
2022-08-19T08:55:36.791Z,4.35
2022-08-19T08:59:08.961Z,4.40
2022-08-19T09:02:11.369Z,5.00
2022-08-19T09:05:16.837Z,4.20
2022-08-19T09:08:25.076Z,3.75
2022-08-19T09:11:42.807Z,4.10
2022-08-19T09:15:06.527Z,4.00
2022-08-19T09:18:18.155Z,3.90
2022-08-19T09:21:30.346Z,4.15
2022-08-19T09:24:36.860Z,3.67
2022-08-19T09:27:43.738Z,3.90
2022-08-19T09:30:46.272Z,3.60
2022-08-19T09:33:49.415Z,3.40
2022-08-19T09:36:55.746Z,3.40
2022-08-19T09:39:58.816Z,3.58
2022-08-19T09:43:09.874Z,3.80
2022-08-19T09:46:15.769Z,3.30
2022-08-19T09:49:22.782Z,4.18
2022-08-19T09:52:32.653Z,4.10
2022-08-19T09:55:35.373Z,4.05
2022-08-19T09:58:38.491Z,4.15
2022-08-19T10:01:41.365Z,4.67
2022-08-19T10:05:02.431Z,3.97
2022-08-19T10:08:04.869Z,4.20
2022-08-19T10:11:28.840Z,3.78
2022-08-19T10:14:40.483Z,3.92
2022-08-19T10:17:47.603Z,3.40
2022-08-19T10:21:09.577Z,3.50
2022-08-19T10:24:14.076Z,3.17
2022-08-19T10:27:16.634Z,4.80
2022-08-19T10:30:20.126Z,4.93
2022-08-19T10:33:39.078Z,4.03
2022-08-19T10:36:53.852Z,3.97
2022-08-19T10:39:59.174Z,4.50
2022-08-19T10:43:01.517Z,14.18
2022-08-19T10:46:05.374Z,4.75
2022-08-19T10:49:12.516Z,4.17
2022-08-19T10:52:33.344Z,4.07
2022-08-19T10:55:55.015Z,4.15
2022-08-19T10:58:59.026Z,4.95
2022-08-19T11:02:03.130Z,5.93
2022-08-19T11:05:12.372Z,4.73
2022-08-19T11:08:23.150Z,4.53
2022-08-19T11:11:27.301Z,4.55
2022-08-19T11:14:32.201Z,4.90
2022-08-19T11:17:37.081Z,4.40
2022-08-19T11:20:39.451Z,4.90
2022-08-19T11:23:42.133Z,5.15
2022-08-19T11:26:45.818Z,5.00
2022-08-19T11:29:48.290Z,4.97
2022-08-19T11:32:50.615Z,5.30
2022-08-19T11:35:54.441Z,4.87
2022-08-19T11:38:56.846Z,5.70
2022-08-19T11:42:25.151Z,6.30
2022-08-19T11:45:29.689Z,6.13
2022-08-19T11:48:32.118Z,5.50
2022-08-19T11:51:34.919Z,4.63
2022-08-19T11:54:37.404Z,4.75
2022-08-19T11:57:41.891Z,4.05
2022-08-19T12:00:46.319Z,4.40
2022-08-19T12:03:50.861Z,3.40
2022-08-19T12:06:54.150Z,3.60
2022-08-19T12:09:56.475Z,3.35
2022-08-19T12:12:59.171Z,3.42
2022-08-19T12:16:02.806Z,3.53
2022-08-19T12:19:06.478Z,3.20
2022-08-19T12:22:08.873Z,3.07
2022-08-19T12:25:12.251Z,2.90
2022-08-19T12:28:14.645Z,3.50
2022-08-19T12:31:17.609Z,2.88
2022-08-19T12:34:22.152Z,2.85
2022-08-19T12:37:24.672Z,2.50
2022-08-19T12:40:27.568Z,2.45
2022-08-19T12:43:31.392Z,2.40
2022-08-19T12:46:33.718Z,2.30
2022-08-19T12:49:54.591Z,3.28
2022-08-19T12:52:58.763Z,2.17
2022-08-19T12:56:01.388Z,2.50
2022-08-19T12:59:05.743Z,2.22
2022-08-19T13:02:08.976Z,1.70
2022-08-19T13:05:13.801Z,1.75
2022-08-19T13:08:16.375Z,2.03
2022-08-19T13:11:21.289Z,2.47
2022-08-19T13:14:24.094Z,3.22
2022-08-19T13:17:26.485Z,2.55
2022-08-19T13:20:29.171Z,1.88
2022-08-19T13:23:32.093Z,2.60
2022-08-19T13:26:34.651Z,2.42
2022-08-19T13:29:55.779Z,2.00
2022-08-19T13:33:16.030Z,1.70
2022-08-19T13:36:18.722Z,1.70
2022-08-19T13:39:21.655Z,1.97
2022-08-19T13:42:26.412Z,1.70
2022-08-19T13:45:30.720Z,1.88
2022-08-19T13:48:33.118Z,1.60
2022-08-19T13:51:38.479Z,1.60
2022-08-19T13:54:42.546Z,1.17
2022-08-19T13:57:45.143Z,1.63
2022-08-19T14:00:48.571Z,1.35
2022-08-19T14:03:51.127Z,1.75
2022-08-19T14:06:53.466Z,1.30
2022-08-19T14:09:55.981Z,1.60
2022-08-19T14:13:01.265Z,1.60
2022-08-19T14:16:10.920Z,1.95
2022-08-19T14:19:13.230Z,2.05
2022-08-19T14:22:15.779Z,1.40
2022-08-19T14:25:27.622Z,1.30
2022-08-19T14:28:31.308Z,1.67
2022-08-19T14:31:33.652Z,1.50
2022-08-19T14:34:38.467Z,1.10
2022-08-19T14:37:45.283Z,1.48
2022-08-19T14:40:49.958Z,1.50
2022-08-19T14:43:54.032Z,1.40
2022-08-19T14:46:56.447Z,1.55
2022-08-19T14:49:59.904Z,1.70
2022-08-19T14:53:11.911Z,1.50
2022-08-19T14:56:19.427Z,1.50
2022-08-19T14:59:22.226Z,1.30
2022-08-19T15:02:35.034Z,1.98
2022-08-19T15:05:37.846Z,1.80
2022-08-19T15:08:42.579Z,1.50
2022-08-19T15:11:45.059Z,1.43
2022-08-19T15:14:51.067Z,1.40
2022-08-19T15:18:03.222Z,1.77
2022-08-19T15:21:05.994Z,1.90
2022-08-19T15:24:10.199Z,1.48
2022-08-19T15:27:13.883Z,1.70
2022-08-19T15:30:24.794Z,1.80
2022-08-19T15:33:27.147Z,1.75
2022-08-19T15:36:29.692Z,1.88
2022-08-19T15:39:33.237Z,2.30
2022-08-19T15:42:42.447Z,1.80
2022-08-19T15:45:49.297Z,1.90
2022-08-19T15:48:56.013Z,1.95
2022-08-19T15:52:02.340Z,2.28
2022-08-19T15:55:07.627Z,2.22
2022-08-19T15:58:32.846Z,1.70
2022-08-19T16:01:53.977Z,1.95
2022-08-19T16:05:15.990Z,2.20
2022-08-19T16:08:18.706Z,1.80
2022-08-19T16:11:29.258Z,1.48
2022-08-19T16:14:35.061Z,1.63
2022-08-19T16:17:37.571Z,2.05
2022-08-19T16:20:40.056Z,1.92
2022-08-19T16:23:42.728Z,1.70
2022-08-19T16:26:46.420Z,2.00
2022-08-19T16:29:48.759Z,2.03
2022-08-19T16:32:51.315Z,2.30
2022-08-19T16:36:00.118Z,1.60
2022-08-19T16:39:04.324Z,2.63
2022-08-19T16:42:08.953Z,2.10
2022-08-19T16:45:11.461Z,2.10
2022-08-19T16:48:13.805Z,2.88
2022-08-19T16:51:16.542Z,2.50
2022-08-19T16:54:19.042Z,2.47
2022-08-19T16:57:23.870Z,2.38
2022-08-19T17:00:26.248Z,2.00
2022-08-19T17:03:36.338Z,1.80
2022-08-19T17:06:46.192Z,1.70
2022-08-19T17:09:48.599Z,2.13
2022-08-19T17:12:54.881Z,2.08
2022-08-19T17:15:57.700Z,2.13
2022-08-19T17:19:01.843Z,2.50
2022-08-19T17:22:04.357Z,2.03
2022-08-19T17:25:07.377Z,2.20
2022-08-19T17:28:14.779Z,2.17
2022-08-19T17:31:19.836Z,2.17
2022-08-19T17:34:22.367Z,2.10
2022-08-19T17:37:24.703Z,2.40
2022-08-19T17:40:29.197Z,2.40
2022-08-19T17:43:36.528Z,2.28
2022-08-19T17:46:41.522Z,2.37
2022-08-19T17:49:43.878Z,2.45
2022-08-19T17:52:46.329Z,2.20
2022-08-19T17:55:48.672Z,2.53
2022-08-19T17:59:00.007Z,2.75
2022-08-19T18:02:04.806Z,2.70
2022-08-19T18:05:07.414Z,2.63
2022-08-19T18:08:11.300Z,2.45
2022-08-19T18:11:13.728Z,2.60
2022-08-19T18:14:16.123Z,2.67
2022-08-19T18:17:19.398Z,2.77
2022-08-19T18:20:22.849Z,2.40
2022-08-19T18:23:44.450Z,2.40
2022-08-19T18:26:48.842Z,2.67
2022-08-19T18:29:51.627Z,2.05
2022-08-19T18:32:54.643Z,2.97
2022-08-19T18:35:57.081Z,2.63
2022-08-19T18:39:18.073Z,2.63
2022-08-19T18:42:39.500Z,2.63
2022-08-19T18:46:01.823Z,3.35
2022-08-19T18:49:05.296Z,2.77
2022-08-19T18:52:07.743Z,2.70
2022-08-19T18:55:10.360Z,2.92
2022-08-19T18:58:13.243Z,2.88
2022-08-19T19:01:22.539Z,4.43
2022-08-19T19:04:32.122Z,3.10
2022-08-19T19:07:35.887Z,3.42
2022-08-19T19:10:38.751Z,2.70
2022-08-19T19:13:41.479Z,3.22
2022-08-19T19:16:45.964Z,3.88
2022-08-19T19:19:49.406Z,3.20
2022-08-19T19:22:51.804Z,3.45
2022-08-19T19:25:58.504Z,3.53
2022-08-19T19:29:00.920Z,3.28
2022-08-19T19:32:05.595Z,3.47
2022-08-19T19:35:10.701Z,3.73
2022-08-19T19:38:13.161Z,4.15
2022-08-19T19:41:18.888Z,3.80
2022-08-19T19:44:29.883Z,3.60
2022-08-19T19:47:33.578Z,3.78
2022-08-19T19:50:36.006Z,3.50
2022-08-19T19:53:38.554Z,3.90
2022-08-19T19:56:48.662Z,4.00
2022-08-19T19:59:51.465Z,3.65
2022-08-19T20:02:55.350Z,3.90
2022-08-19T20:05:59.395Z,4.07
2022-08-19T20:09:11.026Z,4.28
2022-08-19T20:12:13.377Z,4.30
2022-08-19T20:15:15.807Z,4.22
2022-08-19T20:18:18.221Z,4.00
2022-08-19T20:21:21.184Z,4.47
2022-08-19T20:24:27.792Z,3.88
2022-08-19T20:27:31.135Z,4.00
2022-08-19T20:30:41.356Z,4.65
2022-08-19T20:33:49.459Z,4.70
2022-08-19T20:36:52.048Z,4.47
2022-08-19T20:39:54.533Z,4.88
2022-08-19T20:42:57.479Z,4.38
2022-08-19T20:46:02.583Z,4.28
2022-08-19T20:49:05.837Z,4.85
2022-08-19T20:52:08.587Z,5.13
2022-08-19T20:55:12.375Z,4.65
2022-08-19T20:58:16.364Z,4.80
2022-08-19T21:01:18.789Z,4.80
2022-08-19T21:04:21.913Z,5.15
2022-08-19T21:07:24.260Z,4.70
2022-08-19T21:10:42.500Z,4.75
2022-08-19T21:13:44.957Z,4.70
2022-08-19T21:16:47.458Z,4.43
2022-08-19T21:19:49.833Z,5.32
2022-08-19T21:22:52.275Z,5.47
2022-08-19T21:25:56.928Z,4.97
2022-08-19T21:28:59.366Z,5.90
2022-08-19T21:32:01.711Z,5.72
2022-08-19T21:35:04.753Z,5.50
2022-08-19T21:38:07.138Z,5.80
2022-08-19T21:41:09.644Z,5.57
2022-08-19T21:44:12.299Z,5.50
2022-08-19T21:47:15.001Z,6.18
2022-08-19T21:50:17.689Z,4.68
2022-08-19T21:53:22.844Z,4.93
2022-08-19T21:56:25.563Z,4.60
2022-08-19T21:59:28.143Z,5.10
2022-08-19T22:02:31.129Z,5.20
2022-08-19T22:05:34.410Z,5.13
2022-08-19T22:08:37.247Z,5.43
2022-08-19T22:11:39.993Z,5.65
2022-08-19T22:14:42.332Z,5.43
2022-08-19T22:17:44.876Z,5.35
2022-08-19T22:20:48.060Z,5.07
2022-08-19T22:23:50.483Z,5.50
2022-08-19T22:26:52.823Z,5.38
2022-08-19T22:29:55.566Z,5.82
2022-08-19T22:33:08.317Z,5.95
2022-08-19T22:36:10.989Z,4.93
2022-08-19T22:39:13.355Z,5.30
2022-08-19T22:42:20.143Z,5.03
2022-08-19T22:45:22.691Z,5.35
2022-08-19T22:48:28.379Z,5.18
2022-08-19T22:51:50.933Z,6.00
2022-08-19T22:54:56.919Z,6.17
2022-08-19T22:57:59.447Z,5.85
2022-08-19T23:01:01.995Z,5.25
2022-08-19T23:04:05.551Z,6.35
2022-08-19T23:07:09.375Z,6.75
2022-08-19T23:10:11.990Z,6.57
2022-08-19T23:13:17.502Z,6.90
2022-08-19T23:16:19.852Z,7.28
2022-08-19T23:19:22.971Z,7.30
2022-08-19T23:22:25.632Z,7.45
2022-08-19T23:25:30.462Z,6.90
2022-08-19T23:28:51.338Z,7.45
2022-08-19T23:31:53.853Z,7.88
2022-08-19T23:34:56.616Z,7.05
2022-08-19T23:38:01.209Z,7.32
2022-08-19T23:41:05.846Z,7.97
2022-08-19T23:44:14.919Z,6.93
2022-08-19T23:47:17.845Z,7.57
2022-08-19T23:50:22.136Z,6.68
2022-08-19T23:53:25.496Z,7.03
2022-08-19T23:56:27.950Z,6.90
2022-08-19T23:59:30.302Z,6.95
